sensor_id;sensor_type;location;lat;lon;timestamp;P1;durP1;ratioP1;P2;durP2;ratioP2
52434;SDS011;38354;52.892;6.148;2023-05-17T03:01:53;16.83;;;3.30;;
52434;SDS011;38354;52.892;6.148;2023-05-17T03:04:18;15.18;;;3.60;;
52434;SDS011;38354;52.892;6.148;2023-05-17T03:06:44;22.02;;;3.97;;
52434;SDS011;38354;52.892;6.148;2023-05-17T03:09:10;18.23;;;3.05;;
52434;SDS011;38354;52.892;6.148;2023-05-17T03:11:35;20.13;;;2.75;;
52434;SDS011;38354;52.892;6.148;2023-05-17T03:14:01;16.33;;;3.40;;
52434;SDS011;38354;52.892;6.148;2023-05-17T03:16:27;21.13;;;3.03;;
52434;SDS011;38354;52.892;6.148;2023-05-17T03:18:53;19.90;;;2.70;;
52434;SDS011;38354;52.892;6.148;2023-05-17T03:21:18;20.83;;;4.35;;
52434;SDS011;38354;52.892;6.148;2023-05-17T03:23:44;16.80;;;2.97;;
52434;SDS011;38354;52.892;6.148;2023-05-17T03:26:09;19.10;;;2.70;;
52434;SDS011;38354;52.892;6.148;2023-05-17T03:28:35;22.38;;;3.60;;
52434;SDS011;38354;52.892;6.148;2023-05-17T03:31:01;18.85;;;2.90;;
52434;SDS011;38354;52.892;6.148;2023-05-17T03:33:26;22.63;;;3.40;;
52434;SDS011;38354;52.892;6.148;2023-05-17T03:35:52;13.95;;;2.85;;
52434;SDS011;38354;52.892;6.148;2023-05-17T03:38:18;14.18;;;2.65;;
52434;SDS011;38354;52.892;6.148;2023-05-17T03:40:43;17.92;;;3.25;;
52434;SDS011;38354;52.892;6.148;2023-05-17T03:43:09;12.88;;;3.00;;
52434;SDS011;38354;52.892;6.148;2023-05-17T03:45:35;15.95;;;2.97;;
52434;SDS011;38354;52.892;6.148;2023-05-17T03:48:01;16.35;;;3.25;;
52434;SDS011;38354;52.892;6.148;2023-05-17T03:50:26;18.55;;;3.25;;
52434;SDS011;38354;52.892;6.148;2023-05-17T03:52:52;20.08;;;2.92;;
52434;SDS011;38354;52.892;6.148;2023-05-17T03:55:17;19.13;;;2.85;;
52434;SDS011;38354;52.892;6.148;2023-05-17T03:57:44;15.93;;;2.70;;
52434;SDS011;38354;52.892;6.148;2023-05-17T04:00:10;14.35;;;3.03;;
52434;SDS011;38354;52.892;6.148;2023-05-17T04:02:36;19.58;;;3.33;;
52434;SDS011;38354;52.892;6.148;2023-05-17T04:05:02;20.15;;;3.17;;
52434;SDS011;38354;52.892;6.148;2023-05-17T04:07:28;20.05;;;3.15;;
52434;SDS011;38354;52.892;6.148;2023-05-17T04:09:55;19.58;;;2.88;;
52434;SDS011;38354;52.892;6.148;2023-05-17T04:12:26;19.77;;;2.90;;
52434;SDS011;38354;52.892;6.148;2023-05-17T04:14:52;19.52;;;2.72;;
52434;SDS011;38354;52.892;6.148;2023-05-17T04:17:18;13.27;;;2.58;;
52434;SDS011;38354;52.892;6.148;2023-05-17T04:19:44;17.42;;;2.80;;
52434;SDS011;38354;52.892;6.148;2023-05-17T04:22:10;23.30;;;3.70;;
52434;SDS011;38354;52.892;6.148;2023-05-17T04:24:36;15.00;;;2.72;;
52434;SDS011;38354;52.892;6.148;2023-05-17T04:27:01;13.38;;;2.58;;
52434;SDS011;38354;52.892;6.148;2023-05-17T04:29:28;14.98;;;2.75;;
52434;SDS011;38354;52.892;6.148;2023-05-17T04:31:54;16.90;;;2.97;;
52434;SDS011;38354;52.892;6.148;2023-05-17T04:34:20;19.60;;;2.88;;
52434;SDS011;38354;52.892;6.148;2023-05-17T04:36:49;18.65;;;3.17;;
52434;SDS011;38354;52.892;6.148;2023-05-17T04:39:14;15.13;;;3.67;;
52434;SDS011;38354;52.892;6.148;2023-05-17T04:41:41;14.32;;;3.33;;
52434;SDS011;38354;52.892;6.148;2023-05-17T04:44:07;18.58;;;2.70;;
52434;SDS011;38354;52.892;6.148;2023-05-17T04:46:32;17.92;;;3.08;;
52434;SDS011;38354;52.892;6.148;2023-05-17T04:48:58;10.27;;;2.10;;
52434;SDS011;38354;52.892;6.148;2023-05-17T04:51:24;10.75;;;2.30;;
52434;SDS011;38354;52.892;6.148;2023-05-17T04:53:51;19.35;;;2.70;;
52434;SDS011;38354;52.892;6.148;2023-05-17T04:56:16;12.18;;;2.47;;
52434;SDS011;38354;52.892;6.148;2023-05-17T04:58:42;8.75;;;2.28;;
52434;SDS011;38354;52.892;6.148;2023-05-17T05:01:08;11.60;;;2.13;;
52434;SDS011;38354;52.892;6.148;2023-05-17T05:03:35;11.50;;;2.42;;
52434;SDS011;38354;52.892;6.148;2023-05-17T05:06:04;12.50;;;2.35;;
52434;SDS011;38354;52.892;6.148;2023-05-17T05:08:29;16.17;;;2.80;;
52434;SDS011;38354;52.892;6.148;2023-05-17T05:10:56;16.17;;;2.33;;
52434;SDS011;38354;52.892;6.148;2023-05-17T05:13:22;14.70;;;2.53;;
52434;SDS011;38354;52.892;6.148;2023-05-17T05:15:48;10.00;;;2.20;;
52434;SDS011;38354;52.892;6.148;2023-05-17T05:18:13;12.45;;;2.00;;
52434;SDS011;38354;52.892;6.148;2023-05-17T05:20:39;10.85;;;1.85;;
52434;SDS011;38354;52.892;6.148;2023-05-17T05:23:05;12.30;;;3.70;;
52434;SDS011;38354;52.892;6.148;2023-05-17T05:25:31;13.52;;;2.03;;
52434;SDS011;38354;52.892;6.148;2023-05-17T05:27:56;11.43;;;2.28;;
52434;SDS011;38354;52.892;6.148;2023-05-17T05:30:22;9.65;;;1.92;;
52434;SDS011;38354;52.892;6.148;2023-05-17T05:32:48;12.38;;;2.40;;
52434;SDS011;38354;52.892;6.148;2023-05-17T05:35:14;13.45;;;2.17;;
52434;SDS011;38354;52.892;6.148;2023-05-17T05:37:41;11.98;;;2.13;;
52434;SDS011;38354;52.892;6.148;2023-05-17T05:40:07;12.85;;;2.42;;
52434;SDS011;38354;52.892;6.148;2023-05-17T05:42:33;8.30;;;1.50;;
52434;SDS011;38354;52.892;6.148;2023-05-17T05:44:59;8.48;;;1.75;;
52434;SDS011;38354;52.892;6.148;2023-05-17T05:47:24;10.27;;;2.05;;
52434;SDS011;38354;52.892;6.148;2023-05-17T05:49:50;10.77;;;2.30;;
52434;SDS011;38354;52.892;6.148;2023-05-17T05:52:16;11.35;;;2.45;;
52434;SDS011;38354;52.892;6.148;2023-05-17T05:54:41;8.98;;;1.75;;
52434;SDS011;38354;52.892;6.148;2023-05-17T05:57:07;12.32;;;2.05;;
52434;SDS011;38354;52.892;6.148;2023-05-17T05:59:32;11.48;;;1.58;;
52434;SDS011;38354;52.892;6.148;2023-05-17T06:01:58;12.05;;;1.40;;
52434;SDS011;38354;52.892;6.148;2023-05-17T06:04:24;13.82;;;2.17;;
52434;SDS011;38354;52.892;6.148;2023-05-17T06:06:50;13.80;;;4.57;;
52434;SDS011;38354;52.892;6.148;2023-05-17T06:09:16;10.02;;;4.05;;
52434;SDS011;38354;52.892;6.148;2023-05-17T06:11:42;9.00;;;2.40;;
52434;SDS011;38354;52.892;6.148;2023-05-17T06:14:07;12.85;;;1.75;;
52434;SDS011;38354;52.892;6.148;2023-05-17T06:16:33;9.75;;;2.63;;
52434;SDS011;38354;52.892;6.148;2023-05-17T06:18:59;14.23;;;1.98;;
52434;SDS011;38354;52.892;6.148;2023-05-17T06:21:24;12.40;;;1.75;;
52434;SDS011;38354;52.892;6.148;2023-05-17T06:23:51;9.57;;;2.00;;
52434;SDS011;38354;52.892;6.148;2023-05-17T06:26:16;9.50;;;2.35;;
52434;SDS011;38354;52.892;6.148;2023-05-17T06:28:42;11.32;;;3.03;;
52434;SDS011;38354;52.892;6.148;2023-05-17T06:31:08;11.85;;;1.92;;
52434;SDS011;38354;52.892;6.148;2023-05-17T06:33:33;14.40;;;1.92;;
52434;SDS011;38354;52.892;6.148;2023-05-17T06:35:59;10.00;;;1.60;;
52434;SDS011;38354;52.892;6.148;2023-05-17T06:38:25;12.35;;;1.77;;
52434;SDS011;38354;52.892;6.148;2023-05-17T06:40:54;13.15;;;1.60;;
52434;SDS011;38354;52.892;6.148;2023-05-17T06:43:20;8.30;;;1.50;;
52434;SDS011;38354;52.892;6.148;2023-05-17T06:45:46;9.30;;;1.90;;
52434;SDS011;38354;52.892;6.148;2023-05-17T06:48:11;17.23;;;2.15;;
52434;SDS011;38354;52.892;6.148;2023-05-17T06:50:37;12.05;;;2.25;;
52434;SDS011;38354;52.892;6.148;2023-05-17T06:53:03;9.00;;;1.90;;
52434;SDS011;38354;52.892;6.148;2023-05-17T06:55:29;10.40;;;1.35;;
52434;SDS011;38354;52.892;6.148;2023-05-17T06:57:55;12.73;;;2.50;;
52434;SDS011;38354;52.892;6.148;2023-05-17T07:00:20;11.00;;;1.98;;
52434;SDS011;38354;52.892;6.148;2023-05-17T07:02:46;14.73;;;1.92;;
52434;SDS011;38354;52.892;6.148;2023-05-17T07:05:12;11.38;;;1.90;;
52434;SDS011;38354;52.892;6.148;2023-05-17T07:07:38;15.52;;;2.00;;
52434;SDS011;38354;52.892;6.148;2023-05-17T07:10:04;10.95;;;1.80;;
52434;SDS011;38354;52.892;6.148;2023-05-17T07:12:32;17.50;;;1.85;;
52434;SDS011;38354;52.892;6.148;2023-05-17T07:14:58;16.33;;;2.58;;
52434;SDS011;38354;52.892;6.148;2023-05-17T07:17:24;15.55;;;2.00;;
52434;SDS011;38354;52.892;6.148;2023-05-17T07:19:49;16.10;;;2.47;;
52434;SDS011;38354;52.892;6.148;2023-05-17T07:22:16;18.65;;;2.78;;
52434;SDS011;38354;52.892;6.148;2023-05-17T07:24:43;16.90;;;2.20;;
52434;SDS011;38354;52.892;6.148;2023-05-17T07:27:09;12.88;;;1.88;;
52434;SDS011;38354;52.892;6.148;2023-05-17T07:29:35;10.00;;;1.77;;
52434;SDS011;38354;52.892;6.148;2023-05-17T07:32:00;15.48;;;2.72;;
52434;SDS011;38354;52.892;6.148;2023-05-17T07:34:26;12.10;;;2.05;;
52434;SDS011;38354;52.892;6.148;2023-05-17T07:36:52;11.02;;;1.65;;
52434;SDS011;38354;52.892;6.148;2023-05-17T07:39:17;9.82;;;2.25;;
52434;SDS011;38354;52.892;6.148;2023-05-17T07:41:43;10.25;;;1.90;;
52434;SDS011;38354;52.892;6.148;2023-05-17T07:44:08;11.18;;;2.15;;
52434;SDS011;38354;52.892;6.148;2023-05-17T07:46:34;16.40;;;2.33;;
52434;SDS011;38354;52.892;6.148;2023-05-17T07:49:00;8.57;;;1.52;;
52434;SDS011;38354;52.892;6.148;2023-05-17T07:51:26;12.45;;;1.88;;
52434;SDS011;38354;52.892;6.148;2023-05-17T07:53:51;15.80;;;1.98;;
52434;SDS011;38354;52.892;6.148;2023-05-17T07:56:17;8.40;;;1.90;;
52434;SDS011;38354;52.892;6.148;2023-05-17T07:58:43;10.63;;;2.38;;
52434;SDS011;38354;52.892;6.148;2023-05-17T08:01:08;11.27;;;1.80;;
52434;SDS011;38354;52.892;6.148;2023-05-17T08:03:34;10.10;;;1.60;;
52434;SDS011;38354;52.892;6.148;2023-05-17T08:06:00;9.02;;;1.77;;
52434;SDS011;38354;52.892;6.148;2023-05-17T08:08:26;14.90;;;2.15;;
52434;SDS011;38354;52.892;6.148;2023-05-17T08:10:52;13.45;;;1.92;;
52434;SDS011;38354;52.892;6.148;2023-05-17T08:13:17;12.75;;;1.48;;
52434;SDS011;38354;52.892;6.148;2023-05-17T08:15:43;14.18;;;2.42;;
52434;SDS011;38354;52.892;6.148;2023-05-17T08:18:09;9.43;;;1.98;;
52434;SDS011;38354;52.892;6.148;2023-05-17T08:20:35;7.97;;;1.67;;
52434;SDS011;38354;52.892;6.148;2023-05-17T08:23:00;12.02;;;2.20;;
52434;SDS011;38354;52.892;6.148;2023-05-17T08:25:26;9.82;;;1.88;;
52434;SDS011;38354;52.892;6.148;2023-05-17T08:27:52;10.63;;;1.77;;
52434;SDS011;38354;52.892;6.148;2023-05-17T08:30:17;11.38;;;2.17;;
52434;SDS011;38354;52.892;6.148;2023-05-17T08:32:43;10.45;;;1.60;;
52434;SDS011;38354;52.892;6.148;2023-05-17T08:35:09;12.10;;;2.40;;
52434;SDS011;38354;52.892;6.148;2023-05-17T08:37:35;12.10;;;1.77;;
52434;SDS011;38354;52.892;6.148;2023-05-17T08:40:01;11.95;;;1.75;;
52434;SDS011;38354;52.892;6.148;2023-05-17T08:42:28;10.10;;;1.55;;
52434;SDS011;38354;52.892;6.148;2023-05-17T08:44:54;8.95;;;1.33;;
52434;SDS011;38354;52.892;6.148;2023-05-17T08:47:20;10.88;;;1.60;;
52434;SDS011;38354;52.892;6.148;2023-05-17T08:49:57;8.95;;;1.77;;
52434;SDS011;38354;52.892;6.148;2023-05-17T08:52:28;10.63;;;2.10;;
52434;SDS011;38354;52.892;6.148;2023-05-17T08:54:56;8.80;;;1.92;;
52434;SDS011;38354;52.892;6.148;2023-05-17T08:57:23;13.05;;;1.63;;
52434;SDS011;38354;52.892;6.148;2023-05-17T08:59:51;10.52;;;1.63;;
52434;SDS011;38354;52.892;6.148;2023-05-17T09:02:19;10.27;;;1.98;;
52434;SDS011;38354;52.892;6.148;2023-05-17T09:04:46;10.95;;;1.67;;
52434;SDS011;38354;52.892;6.148;2023-05-17T09:07:20;16.27;;;2.60;;
52434;SDS011;38354;52.892;6.148;2023-05-17T09:09:49;12.65;;;2.08;;
52434;SDS011;38354;52.892;6.148;2023-05-17T09:12:21;10.40;;;1.70;;
52434;SDS011;38354;52.892;6.148;2023-05-17T09:14:47;13.57;;;2.75;;
52434;SDS011;38354;52.892;6.148;2023-05-17T09:17:20;11.88;;;2.53;;
52434;SDS011;38354;52.892;6.148;2023-05-17T09:19:47;14.05;;;2.42;;
52434;SDS011;38354;52.892;6.148;2023-05-17T09:22:16;12.85;;;2.05;;
52434;SDS011;38354;52.892;6.148;2023-05-17T09:24:43;9.40;;;1.80;;
52434;SDS011;38354;52.892;6.148;2023-05-17T09:27:12;12.15;;;1.67;;
52434;SDS011;38354;52.892;6.148;2023-05-17T09:29:39;8.38;;;2.10;;
52434;SDS011;38354;52.892;6.148;2023-05-17T09:32:15;8.93;;;2.00;;
52434;SDS011;38354;52.892;6.148;2023-05-17T09:34:43;11.52;;;1.83;;
52434;SDS011;38354;52.892;6.148;2023-05-17T09:37:13;10.70;;;1.95;;
52434;SDS011;38354;52.892;6.148;2023-05-17T09:39:43;12.02;;;2.47;;
52434;SDS011;38354;52.892;6.148;2023-05-17T09:42:11;14.90;;;1.92;;
52434;SDS011;38354;52.892;6.148;2023-05-17T09:47:27;12.27;;;2.03;;
52434;SDS011;38354;52.892;6.148;2023-05-17T09:49:55;15.60;;;2.70;;
52434;SDS011;38354;52.892;6.148;2023-05-17T09:52:22;13.88;;;2.50;;
52434;SDS011;38354;52.892;6.148;2023-05-17T09:54:52;16.92;;;1.98;;
52434;SDS011;38354;52.892;6.148;2023-05-17T09:57:19;14.45;;;2.35;;
52434;SDS011;38354;52.892;6.148;2023-05-17T09:59:45;12.85;;;1.83;;
52434;SDS011;38354;52.892;6.148;2023-05-17T10:02:21;11.55;;;1.83;;
52434;SDS011;38354;52.892;6.148;2023-05-17T10:04:51;13.05;;;2.35;;
52434;SDS011;38354;52.892;6.148;2023-05-17T10:07:19;17.80;;;1.90;;
52434;SDS011;38354;52.892;6.148;2023-05-17T10:09:46;12.55;;;2.30;;
52434;SDS011;38354;52.892;6.148;2023-05-17T10:12:15;12.13;;;1.90;;
52434;SDS011;38354;52.892;6.148;2023-05-17T10:14:42;9.95;;;1.70;;
52434;SDS011;38354;52.892;6.148;2023-05-17T10:17:09;14.05;;;1.70;;
52434;SDS011;38354;52.892;6.148;2023-05-17T10:19:36;9.93;;;1.52;;
52434;SDS011;38354;52.892;6.148;2023-05-17T10:22:02;9.70;;;1.88;;
52434;SDS011;38354;52.892;6.148;2023-05-17T10:24:28;8.40;;;1.90;;
52434;SDS011;38354;52.892;6.148;2023-05-17T10:26:56;13.23;;;1.88;;
52434;SDS011;38354;52.892;6.148;2023-05-17T10:29:22;9.63;;;1.65;;
52434;SDS011;38354;52.892;6.148;2023-05-17T10:31:48;8.52;;;1.60;;
52434;SDS011;38354;52.892;6.148;2023-05-17T10:34:18;13.48;;;2.17;;
52434;SDS011;38354;52.892;6.148;2023-05-17T10:36:44;6.70;;;1.50;;
52434;SDS011;38354;52.892;6.148;2023-05-17T10:39:10;8.93;;;1.50;;
52434;SDS011;38354;52.892;6.148;2023-05-17T10:41:38;9.68;;;1.95;;
52434;SDS011;38354;52.892;6.148;2023-05-17T10:44:07;12.60;;;1.80;;
52434;SDS011;38354;52.892;6.148;2023-05-17T10:46:36;7.72;;;1.38;;
52434;SDS011;38354;52.892;6.148;2023-05-17T10:49:03;10.57;;;1.58;;
52434;SDS011;38354;52.892;6.148;2023-05-17T10:51:29;11.20;;;1.88;;
52434;SDS011;38354;52.892;6.148;2023-05-17T10:54:10;8.32;;;1.75;;
52434;SDS011;38354;52.892;6.148;2023-05-17T10:56:40;11.45;;;2.03;;
52434;SDS011;38354;52.892;6.148;2023-05-17T10:59:21;10.00;;;1.50;;
52434;SDS011;38354;52.892;6.148;2023-05-17T11:02:08;11.40;;;2.22;;
52434;SDS011;38354;52.892;6.148;2023-05-17T11:04:38;9.65;;;1.92;;
52434;SDS011;38354;52.892;6.148;2023-05-17T11:25:30;5.82;;;1.50;;
52434;SDS011;38354;52.892;6.148;2023-05-17T11:27:59;7.10;;;1.60;;
52434;SDS011;38354;52.892;6.148;2023-05-17T11:30:30;8.48;;;1.35;;
52434;SDS011;38354;52.892;6.148;2023-05-17T11:32:57;7.65;;;1.67;;
52434;SDS011;38354;52.892;6.148;2023-05-17T11:35:28;6.97;;;1.42;;
52434;SDS011;38354;52.892;6.148;2023-05-17T11:40:43;7.57;;;1.50;;
52434;SDS011;38354;52.892;6.148;2023-05-17T11:43:23;10.88;;;1.75;;
52434;SDS011;38354;52.892;6.148;2023-05-17T11:45:55;9.02;;;1.83;;
52434;SDS011;38354;52.892;6.148;2023-05-17T11:48:22;6.32;;;1.38;;
52434;SDS011;38354;52.892;6.148;2023-05-17T11:50:49;12.15;;;1.95;;
52434;SDS011;38354;52.892;6.148;2023-05-17T11:53:18;8.60;;;1.50;;
52434;SDS011;38354;52.892;6.148;2023-05-17T11:55:45;10.85;;;1.60;;
52434;SDS011;38354;52.892;6.148;2023-05-17T11:58:13;12.38;;;2.38;;
52434;SDS011;38354;52.892;6.148;2023-05-17T12:00:42;7.18;;;1.67;;
52434;SDS011;38354;52.892;6.148;2023-05-17T12:03:14;12.02;;;1.90;;
52434;SDS011;38354;52.892;6.148;2023-05-17T12:05:45;6.70;;;1.60;;
52434;SDS011;38354;52.892;6.148;2023-05-17T12:08:14;7.60;;;1.60;;
52434;SDS011;38354;52.892;6.148;2023-05-17T12:10:49;7.20;;;1.63;;
52434;SDS011;38354;52.892;6.148;2023-05-17T12:13:16;9.43;;;1.65;;
52434;SDS011;38354;52.892;6.148;2023-05-17T12:15:55;11.88;;;2.42;;
52434;SDS011;38354;52.892;6.148;2023-05-17T12:23:28;8.45;;;1.50;;
52434;SDS011;38354;52.892;6.148;2023-05-17T12:28:27;10.13;;;1.80;;
52434;SDS011;38354;52.892;6.148;2023-05-17T12:30:52;11.00;;;1.70;;
52434;SDS011;38354;52.892;6.148;2023-05-17T12:33:22;7.38;;;1.73;;
52434;SDS011;38354;52.892;6.148;2023-05-17T12:35:48;9.45;;;2.20;;
52434;SDS011;38354;52.892;6.148;2023-05-17T12:38:14;9.90;;;1.60;;
52434;SDS011;38354;52.892;6.148;2023-05-17T12:40:40;13.32;;;2.13;;
52434;SDS011;38354;52.892;6.148;2023-05-17T12:43:05;9.73;;;1.90;;
52434;SDS011;38354;52.892;6.148;2023-05-17T12:45:33;11.23;;;1.95;;
52434;SDS011;38354;52.892;6.148;2023-05-17T12:47:59;8.25;;;1.38;;
52434;SDS011;38354;52.892;6.148;2023-05-17T12:50:28;15.55;;;2.95;;
52434;SDS011;38354;52.892;6.148;2023-05-17T12:52:55;10.05;;;1.98;;
52434;SDS011;38354;52.892;6.148;2023-05-17T12:55:21;11.23;;;1.98;;
52434;SDS011;38354;52.892;6.148;2023-05-17T12:57:47;11.98;;;2.08;;
52434;SDS011;38354;52.892;6.148;2023-05-17T13:00:14;12.60;;;2.42;;
52434;SDS011;38354;52.892;6.148;2023-05-17T13:02:41;13.88;;;1.90;;
52434;SDS011;38354;52.892;6.148;2023-05-17T13:05:13;11.02;;;1.92;;
52434;SDS011;38354;52.892;6.148;2023-05-17T13:07:43;11.32;;;2.42;;
52434;SDS011;38354;52.892;6.148;2023-05-17T13:10:23;9.57;;;1.60;;
52434;SDS011;38354;52.892;6.148;2023-05-17T13:12:56;8.40;;;1.55;;
52434;SDS011;38354;52.892;6.148;2023-05-17T13:15:27;13.85;;;2.55;;
52434;SDS011;38354;52.892;6.148;2023-05-17T13:17:57;10.15;;;1.75;;
52434;SDS011;38354;52.892;6.148;2023-05-17T13:20:24;10.10;;;1.70;;
52434;SDS011;38354;52.892;6.148;2023-05-17T13:22:51;8.65;;;1.83;;
52434;SDS011;38354;52.892;6.148;2023-05-17T13:25:18;9.13;;;2.00;;
52434;SDS011;38354;52.892;6.148;2023-05-17T13:27:44;8.15;;;1.65;;
52434;SDS011;38354;52.892;6.148;2023-05-17T13:30:13;10.45;;;1.58;;
52434;SDS011;38354;52.892;6.148;2023-05-17T13:32:40;8.82;;;1.63;;
52434;SDS011;38354;52.892;6.148;2023-05-17T13:35:06;12.77;;;1.77;;
52434;SDS011;38354;52.892;6.148;2023-05-17T13:37:33;8.13;;;1.67;;
52434;SDS011;38354;52.892;6.148;2023-05-17T13:39:59;10.52;;;1.80;;
52434;SDS011;38354;52.892;6.148;2023-05-17T13:42:25;5.65;;;1.30;;
52434;SDS011;38354;52.892;6.148;2023-05-17T13:44:51;9.18;;;1.30;;
52434;SDS011;38354;52.892;6.148;2023-05-17T13:47:16;7.75;;;1.58;;
52434;SDS011;38354;52.892;6.148;2023-05-17T13:49:42;8.82;;;2.28;;
52434;SDS011;38354;52.892;6.148;2023-05-17T13:52:08;9.27;;;2.42;;
52434;SDS011;38354;52.892;6.148;2023-05-17T13:54:34;9.48;;;1.60;;
52434;SDS011;38354;52.892;6.148;2023-05-17T13:57:00;9.85;;;1.90;;
52434;SDS011;38354;52.892;6.148;2023-05-17T13:59:26;8.88;;;1.80;;
52434;SDS011;38354;52.892;6.148;2023-05-17T14:01:52;9.70;;;1.90;;
52434;SDS011;38354;52.892;6.148;2023-05-17T14:04:18;6.47;;;1.60;;
52434;SDS011;38354;52.892;6.148;2023-05-17T14:06:45;8.98;;;1.80;;
52434;SDS011;38354;52.892;6.148;2023-05-17T14:09:11;8.15;;;2.08;;
52434;SDS011;38354;52.892;6.148;2023-05-17T14:11:37;8.38;;;1.40;;
52434;SDS011;38354;52.892;6.148;2023-05-17T14:14:03;6.65;;;1.40;;
52434;SDS011;38354;52.892;6.148;2023-05-17T14:16:28;9.82;;;2.00;;
52434;SDS011;38354;52.892;6.148;2023-05-17T14:18:55;7.45;;;1.90;;
52434;SDS011;38354;52.892;6.148;2023-05-17T14:21:20;7.65;;;1.40;;
52434;SDS011;38354;52.892;6.148;2023-05-17T14:23:46;7.45;;;1.65;;
52434;SDS011;38354;52.892;6.148;2023-05-17T14:26:12;8.52;;;1.80;;
52434;SDS011;38354;52.892;6.148;2023-05-17T14:28:37;9.82;;;1.40;;
52434;SDS011;38354;52.892;6.148;2023-05-17T14:31:07;5.18;;;1.13;;
52434;SDS011;38354;52.892;6.148;2023-05-17T14:33:33;6.72;;;1.70;;
52434;SDS011;38354;52.892;6.148;2023-05-17T14:35:59;7.78;;;1.60;;
52434;SDS011;38354;52.892;6.148;2023-05-17T14:38:24;9.65;;;1.45;;
52434;SDS011;38354;52.892;6.148;2023-05-17T14:40:50;5.85;;;1.38;;
52434;SDS011;38354;52.892;6.148;2023-05-17T14:43:16;7.78;;;1.58;;
52434;SDS011;38354;52.892;6.148;2023-05-17T14:45:41;5.22;;;1.40;;
52434;SDS011;38354;52.892;6.148;2023-05-17T14:48:07;5.40;;;1.35;;
52434;SDS011;38354;52.892;6.148;2023-05-17T14:50:33;9.50;;;1.70;;
52434;SDS011;38354;52.892;6.148;2023-05-17T14:52:59;8.23;;;1.50;;
52434;SDS011;38354;52.892;6.148;2023-05-17T14:55:25;7.93;;;1.60;;
52434;SDS011;38354;52.892;6.148;2023-05-17T14:57:51;6.63;;;1.55;;
52434;SDS011;38354;52.892;6.148;2023-05-17T15:00:17;6.88;;;1.50;;
52434;SDS011;38354;52.892;6.148;2023-05-17T15:02:43;7.50;;;1.60;;
52434;SDS011;38354;52.892;6.148;2023-05-17T15:05:09;10.88;;;1.50;;
52434;SDS011;38354;52.892;6.148;2023-05-17T15:07:35;6.80;;;1.67;;
52434;SDS011;38354;52.892;6.148;2023-05-17T15:10:04;6.18;;;1.48;;
52434;SDS011;38354;52.892;6.148;2023-05-17T15:12:30;7.95;;;1.80;;
52434;SDS011;38354;52.892;6.148;2023-05-17T15:14:57;7.07;;;1.70;;
52434;SDS011;38354;52.892;6.148;2023-05-17T15:17:22;8.90;;;1.35;;
52434;SDS011;38354;52.892;6.148;2023-05-17T15:19:48;9.15;;;1.50;;
52434;SDS011;38354;52.892;6.148;2023-05-17T15:22:15;7.55;;;1.95;;
52434;SDS011;38354;52.892;6.148;2023-05-17T15:24:41;5.88;;;1.40;;
52434;SDS011;38354;52.892;6.148;2023-05-17T15:27:07;9.02;;;1.60;;
52434;SDS011;38354;52.892;6.148;2023-05-17T15:29:36;7.18;;;2.20;;
52434;SDS011;38354;52.892;6.148;2023-05-17T15:32:04;8.10;;;1.73;;
52434;SDS011;38354;52.892;6.148;2023-05-17T15:34:31;8.52;;;1.60;;
52434;SDS011;38354;52.892;6.148;2023-05-17T15:36:57;8.25;;;1.65;;
52434;SDS011;38354;52.892;6.148;2023-05-17T15:39:22;7.70;;;1.70;;
52434;SDS011;38354;52.892;6.148;2023-05-17T15:41:48;13.23;;;2.65;;
52434;SDS011;38354;52.892;6.148;2023-05-17T15:44:14;9.82;;;1.67;;
52434;SDS011;38354;52.892;6.148;2023-05-17T15:46:40;12.52;;;1.58;;
52434;SDS011;38354;52.892;6.148;2023-05-17T15:49:05;8.43;;;1.45;;
52434;SDS011;38354;52.892;6.148;2023-05-17T15:51:31;6.18;;;1.30;;
52434;SDS011;38354;52.892;6.148;2023-05-17T15:53:57;6.03;;;1.45;;
52434;SDS011;38354;52.892;6.148;2023-05-17T15:56:22;7.00;;;1.77;;
52434;SDS011;38354;52.892;6.148;2023-05-17T15:58:48;10.02;;;1.75;;
52434;SDS011;38354;52.892;6.148;2023-05-17T16:01:14;10.30;;;1.75;;
52434;SDS011;38354;52.892;6.148;2023-05-17T16:03:40;13.00;;;1.80;;
52434;SDS011;38354;52.892;6.148;2023-05-17T16:06:06;13.60;;;1.77;;
52434;SDS011;38354;52.892;6.148;2023-05-17T16:08:32;7.32;;;1.50;;
52434;SDS011;38354;52.892;6.148;2023-05-17T16:10:58;8.30;;;1.42;;
52434;SDS011;38354;52.892;6.148;2023-05-17T16:13:24;11.57;;;1.63;;
52434;SDS011;38354;52.892;6.148;2023-05-17T16:15:49;9.75;;;1.52;;
52434;SDS011;38354;52.892;6.148;2023-05-17T16:18:15;5.65;;;1.30;;
52434;SDS011;38354;52.892;6.148;2023-05-17T16:20:41;8.55;;;1.40;;
52434;SDS011;38354;52.892;6.148;2023-05-17T16:23:08;10.52;;;1.83;;
52434;SDS011;38354;52.892;6.148;2023-05-17T16:25:33;11.38;;;1.70;;
52434;SDS011;38354;52.892;6.148;2023-05-17T16:28:00;8.90;;;1.55;;
52434;SDS011;38354;52.892;6.148;2023-05-17T16:30:26;6.15;;;1.67;;
52434;SDS011;38354;52.892;6.148;2023-05-17T16:32:52;8.20;;;1.42;;
52434;SDS011;38354;52.892;6.148;2023-05-17T16:35:18;5.28;;;1.63;;
52434;SDS011;38354;52.892;6.148;2023-05-17T16:37:47;7.63;;;1.50;;
52434;SDS011;38354;52.892;6.148;2023-05-17T16:40:16;8.10;;;1.60;;
52434;SDS011;38354;52.892;6.148;2023-05-17T16:42:41;6.43;;;1.25;;
52434;SDS011;38354;52.892;6.148;2023-05-17T16:45:08;16.67;;;2.33;;
52434;SDS011;38354;52.892;6.148;2023-05-17T16:47:34;9.75;;;1.30;;
52434;SDS011;38354;52.892;6.148;2023-05-17T16:50:00;9.80;;;2.22;;
52434;SDS011;38354;52.892;6.148;2023-05-17T16:52:25;11.13;;;1.65;;
52434;SDS011;38354;52.892;6.148;2023-05-17T16:54:51;5.75;;;1.30;;
52434;SDS011;38354;52.892;6.148;2023-05-17T16:57:17;7.35;;;1.90;;
52434;SDS011;38354;52.892;6.148;2023-05-17T16:59:43;8.93;;;1.60;;
52434;SDS011;38354;52.892;6.148;2023-05-17T17:02:09;8.23;;;1.40;;
52434;SDS011;38354;52.892;6.148;2023-05-17T17:04:34;6.70;;;1.33;;
52434;SDS011;38354;52.892;6.148;2023-05-17T17:07:00;10.40;;;1.42;;
52434;SDS011;38354;52.892;6.148;2023-05-17T17:09:26;7.57;;;1.70;;
52434;SDS011;38354;52.892;6.148;2023-05-17T17:11:52;8.35;;;1.48;;
52434;SDS011;38354;52.892;6.148;2023-05-17T17:14:17;6.55;;;1.40;;
52434;SDS011;38354;52.892;6.148;2023-05-17T17:16:43;6.07;;;1.30;;
52434;SDS011;38354;52.892;6.148;2023-05-17T17:19:09;7.32;;;2.42;;
52434;SDS011;38354;52.892;6.148;2023-05-17T17:21:34;8.95;;;2.22;;
52434;SDS011;38354;52.892;6.148;2023-05-17T17:24:04;5.13;;;1.38;;
52434;SDS011;38354;52.892;6.148;2023-05-17T17:26:30;6.65;;;1.40;;
52434;SDS011;38354;52.892;6.148;2023-05-17T17:28:59;7.78;;;1.40;;
52434;SDS011;38354;52.892;6.148;2023-05-17T17:31:25;6.25;;;1.30;;
52434;SDS011;38354;52.892;6.148;2023-05-17T17:33:51;9.82;;;1.35;;
52434;SDS011;38354;52.892;6.148;2023-05-17T17:36:17;7.10;;;1.25;;
52434;SDS011;38354;52.892;6.148;2023-05-17T17:38:43;7.20;;;1.48;;
52434;SDS011;38354;52.892;6.148;2023-05-17T17:41:08;6.63;;;1.23;;
52434;SDS011;38354;52.892;6.148;2023-05-17T17:43:34;5.55;;;1.25;;
52434;SDS011;38354;52.892;6.148;2023-05-17T17:46:00;6.95;;;1.23;;
52434;SDS011;38354;52.892;6.148;2023-05-17T17:48:26;9.60;;;1.45;;
52434;SDS011;38354;52.892;6.148;2023-05-17T17:50:52;7.68;;;1.50;;
52434;SDS011;38354;52.892;6.148;2023-05-17T17:53:17;9.57;;;1.63;;
52434;SDS011;38354;52.892;6.148;2023-05-17T17:55:43;7.10;;;1.60;;
52434;SDS011;38354;52.892;6.148;2023-05-17T17:58:09;7.75;;;1.30;;
52434;SDS011;38354;52.892;6.148;2023-05-17T18:00:34;7.40;;;1.38;;
52434;SDS011;38354;52.892;6.148;2023-05-17T18:03:00;4.30;;;1.20;;
52434;SDS011;38354;52.892;6.148;2023-05-17T18:05:26;6.22;;;1.80;;
52434;SDS011;38354;52.892;6.148;2023-05-17T18:07:51;7.75;;;1.50;;
52434;SDS011;38354;52.892;6.148;2023-05-17T18:10:17;11.55;;;1.80;;